sensor_id;sensor_type;location;lat;lon;timestamp;temperature;humidity
30983;DHT22;17660;52.578;13.288;2023-02-19T00:01:26;7.20;99.90
30983;DHT22;17660;52.578;13.288;2023-02-19T00:03:59;7.10;99.90
30983;DHT22;17660;52.578;13.288;2023-02-19T00:06:28;7.10;99.90
30983;DHT22;17660;52.578;13.288;2023-02-19T00:08:55;7.10;99.90
30983;DHT22;17660;52.578;13.288;2023-02-19T00:11:25;7.20;99.90
30983;DHT22;17660;52.578;13.288;2023-02-19T00:13:54;7.10;99.90
30983;DHT22;17660;52.578;13.288;2023-02-19T00:18:56;7.10;99.90
30983;DHT22;17660;52.578;13.288;2023-02-19T00:21:24;7.10;99.90
30983;DHT22;17660;52.578;13.288;2023-02-19T00:23:53;7.10;99.90
30983;DHT22;17660;52.578;13.288;2023-02-19T00:26:20;7.20;99.90
30983;DHT22;17660;52.578;13.288;2023-02-19T00:28:49;7.10;99.90
30983;DHT22;17660;52.578;13.288;2023-02-19T00:31:18;7.20;99.90
30983;DHT22;17660;52.578;13.288;2023-02-19T00:33:46;7.20;99.90
30983;DHT22;17660;52.578;13.288;2023-02-19T00:36:14;7.10;99.90
30983;DHT22;17660;52.578;13.288;2023-02-19T00:38:41;7.10;99.90
30983;DHT22;17660;52.578;13.288;2023-02-19T00:41:09;7.20;99.90
30983;DHT22;17660;52.578;13.288;2023-02-19T00:43:56;7.20;99.90
30983;DHT22;17660;52.578;13.288;2023-02-19T00:46:28;7.20;99.90
30983;DHT22;17660;52.578;13.288;2023-02-19T00:48:56;7.20;99.90
30983;DHT22;17660;52.578;13.288;2023-02-19T00:51:25;7.10;99.90
30983;DHT22;17660;52.578;13.288;2023-02-19T00:53:53;7.10;99.90
30983;DHT22;17660;52.578;13.288;2023-02-19T00:56:20;7.10;99.90
30983;DHT22;17660;52.578;13.288;2023-02-19T00:58:48;7.10;99.90
30983;DHT22;17660;52.578;13.288;2023-02-19T01:01:15;7.10;99.90
30983;DHT22;17660;52.578;13.288;2023-02-19T01:03:42;7.10;99.90
30983;DHT22;17660;52.578;13.288;2023-02-19T01:06:11;7.10;99.90
30983;DHT22;17660;52.578;13.288;2023-02-19T01:08:38;7.00;99.90
30983;DHT22;17660;52.578;13.288;2023-02-19T01:11:06;7.00;99.90
30983;DHT22;17660;52.578;13.288;2023-02-19T01:13:34;7.00;99.90
30983;DHT22;17660;52.578;13.288;2023-02-19T01:16:07;7.00;99.90
30983;DHT22;17660;52.578;13.288;2023-02-19T01:18:34;7.00;99.90
30983;DHT22;17660;52.578;13.288;2023-02-19T01:21:11;7.00;99.90
30983;DHT22;17660;52.578;13.288;2023-02-19T01:23:38;7.00;99.90
30983;DHT22;17660;52.578;13.288;2023-02-19T01:26:07;7.00;99.90
30983;DHT22;17660;52.578;13.288;2023-02-19T01:28:35;7.10;99.90
30983;DHT22;17660;52.578;13.288;2023-02-19T01:31:04;7.00;99.90
30983;DHT22;17660;52.578;13.288;2023-02-19T01:33:32;7.10;99.90
30983;DHT22;17660;52.578;13.288;2023-02-19T01:35:59;7.00;99.90
30983;DHT22;17660;52.578;13.288;2023-02-19T01:38:25;7.00;99.90
30983;DHT22;17660;52.578;13.288;2023-02-19T01:41:02;6.90;99.90
30983;DHT22;17660;52.578;13.288;2023-02-19T01:43:32;6.90;99.90
30983;DHT22;17660;52.578;13.288;2023-02-19T01:45:59;6.90;99.90
30983;DHT22;17660;52.578;13.288;2023-02-19T01:48:30;6.90;99.90
30983;DHT22;17660;52.578;13.288;2023-02-19T01:51:06;7.00;99.90
30983;DHT22;17660;52.578;13.288;2023-02-19T01:53:41;6.90;99.90
30983;DHT22;17660;52.578;13.288;2023-02-19T01:56:09;6.90;99.90
30983;DHT22;17660;52.578;13.288;2023-02-19T01:58:39;6.90;99.90
30983;DHT22;17660;52.578;13.288;2023-02-19T02:01:07;6.90;99.90
30983;DHT22;17660;52.578;13.288;2023-02-19T02:03:37;6.80;99.90
30983;DHT22;17660;52.578;13.288;2023-02-19T02:06:20;6.80;99.90
30983;DHT22;17660;52.578;13.288;2023-02-19T02:08:51;6.80;99.90
30983;DHT22;17660;52.578;13.288;2023-02-19T02:11:39;6.70;99.90
30983;DHT22;17660;52.578;13.288;2023-02-19T02:14:07;6.70;99.90
30983;DHT22;17660;52.578;13.288;2023-02-19T02:33:29;6.60;99.90
30983;DHT22;17660;52.578;13.288;2023-02-19T02:36:00;6.60;99.90
30983;DHT22;17660;52.578;13.288;2023-02-19T02:38:31;6.70;99.90
30983;DHT22;17660;52.578;13.288;2023-02-19T02:40:58;6.60;99.90
30983;DHT22;17660;52.578;13.288;2023-02-19T02:43:25;6.60;99.90
30983;DHT22;17660;52.578;13.288;2023-02-19T02:45:52;6.70;99.90
30983;DHT22;17660;52.578;13.288;2023-02-19T02:54:13;6.60;99.90
30983;DHT22;17660;52.578;13.288;2023-02-19T02:57:00;6.60;99.90
30983;DHT22;17660;52.578;13.288;2023-02-19T02:59:31;6.60;99.90
30983;DHT22;17660;52.578;13.288;2023-02-19T03:02:09;6.50;99.90
30983;DHT22;17660;52.578;13.288;2023-02-19T03:10:31;6.50;99.90
30983;DHT22;17660;52.578;13.288;2023-02-19T03:13:00;6.50;99.90
30983;DHT22;17660;52.578;13.288;2023-02-19T03:15:55;6.40;99.90
30983;DHT22;17660;52.578;13.288;2023-02-19T03:18:43;6.50;99.90
30983;DHT22;17660;52.578;13.288;2023-02-19T03:21:32;6.40;99.90
30983;DHT22;17660;52.578;13.288;2023-02-19T03:24:01;6.30;99.90
30983;DHT22;17660;52.578;13.288;2023-02-19T03:26:47;6.30;99.90
30983;DHT22;17660;52.578;13.288;2023-02-19T03:29:23;6.30;99.90
30983;DHT22;17660;52.578;13.288;2023-02-19T03:31:55;6.30;99.90
30983;DHT22;17660;52.578;13.288;2023-02-19T03:34:28;6.30;99.90
30983;DHT22;17660;52.578;13.288;2023-02-19T03:37:03;6.30;99.90
30983;DHT22;17660;52.578;13.288;2023-02-19T03:39:32;6.20;99.90
30983;DHT22;17660;52.578;13.288;2023-02-19T03:42:17;6.10;99.90
30983;DHT22;17660;52.578;13.288;2023-02-19T03:47:37;5.90;99.90
30983;DHT22;17660;52.578;13.288;2023-02-19T03:50:28;5.90;99.90
30983;DHT22;17660;52.578;13.288;2023-02-19T03:55:43;5.90;99.90
30983;DHT22;17660;52.578;13.288;2023-02-19T03:58:26;5.90;99.90
30983;DHT22;17660;52.578;13.288;2023-02-19T04:01:07;5.90;99.90
30983;DHT22;17660;52.578;13.288;2023-02-19T04:03:48;5.80;99.90
30983;DHT22;17660;52.578;13.288;2023-02-19T04:06:21;5.90;99.90
30983;DHT22;17660;52.578;13.288;2023-02-19T04:08:52;5.80;99.90
30983;DHT22;17660;52.578;13.288;2023-02-19T04:11:21;5.80;99.90
30983;DHT22;17660;52.578;13.288;2023-02-19T04:14:09;5.70;99.90
30983;DHT22;17660;52.578;13.288;2023-02-19T04:16:52;5.70;99.90
30983;DHT22;17660;52.578;13.288;2023-02-19T04:19:24;5.70;99.90
30983;DHT22;17660;52.578;13.288;2023-02-19T04:21:52;5.70;99.90
30983;DHT22;17660;52.578;13.288;2023-02-19T04:24:28;5.50;99.90
30983;DHT22;17660;52.578;13.288;2023-02-19T04:26:57;5.50;99.90
30983;DHT22;17660;52.578;13.288;2023-02-19T04:29:23;5.40;99.90
30983;DHT22;17660;52.578;13.288;2023-02-19T04:31:50;5.40;99.90
30983;DHT22;17660;52.578;13.288;2023-02-19T04:34:17;5.40;99.90
30983;DHT22;17660;52.578;13.288;2023-02-19T04:36:44;5.40;99.90
30983;DHT22;17660;52.578;13.288;2023-02-19T04:39:10;5.30;99.90
30983;DHT22;17660;52.578;13.288;2023-02-19T04:41:37;5.40;99.90
30983;DHT22;17660;52.578;13.288;2023-02-19T04:44:04;5.40;99.90
30983;DHT22;17660;52.578;13.288;2023-02-19T04:46:31;5.40;99.90
30983;DHT22;17660;52.578;13.288;2023-02-19T04:48:57;5.40;99.90
30983;DHT22;17660;52.578;13.288;2023-02-19T04:51:24;5.30;99.90
30983;DHT22;17660;52.578;13.288;2023-02-19T04:53:51;5.30;99.90
30983;DHT22;17660;52.578;13.288;2023-02-19T04:56:18;5.40;99.90
30983;DHT22;17660;52.578;13.288;2023-02-19T04:58:44;5.30;99.90
30983;DHT22;17660;52.578;13.288;2023-02-19T05:01:11;5.20;99.90
30983;DHT22;17660;52.578;13.288;2023-02-19T05:03:39;5.30;99.90
30983;DHT22;17660;52.578;13.288;2023-02-19T05:06:08;5.20;99.90
30983;DHT22;17660;52.578;13.288;2023-02-19T05:08:36;5.20;99.90
30983;DHT22;17660;52.578;13.288;2023-02-19T05:11:05;5.20;99.90
30983;DHT22;17660;52.578;13.288;2023-02-19T05:13:32;5.20;99.90
30983;DHT22;17660;52.578;13.288;2023-02-19T05:16:05;5.20;99.90
30983;DHT22;17660;52.578;13.288;2023-02-19T05:18:33;5.10;99.90
30983;DHT22;17660;52.578;13.288;2023-02-19T05:21:00;5.10;99.90
30983;DHT22;17660;52.578;13.288;2023-02-19T05:23:27;5.10;99.90
30983;DHT22;17660;52.578;13.288;2023-02-19T05:25:54;5.10;99.90
30983;DHT22;17660;52.578;13.288;2023-02-19T05:28:21;5.10;99.90
30983;DHT22;17660;52.578;13.288;2023-02-19T05:30:55;5.10;99.90
30983;DHT22;17660;52.578;13.288;2023-02-19T05:33:24;5.10;99.90
30983;DHT22;17660;52.578;13.288;2023-02-19T05:35:53;5.00;99.90
30983;DHT22;17660;52.578;13.288;2023-02-19T05:38:21;5.10;99.90
30983;DHT22;17660;52.578;13.288;2023-02-19T05:40:48;5.10;99.90
30983;DHT22;17660;52.578;13.288;2023-02-19T05:43:15;5.10;99.90
30983;DHT22;17660;52.578;13.288;2023-02-19T05:45:43;5.10;99.90
30983;DHT22;17660;52.578;13.288;2023-02-19T05:48:10;5.10;99.90
30983;DHT22;17660;52.578;13.288;2023-02-19T05:50:37;5.10;99.90
30983;DHT22;17660;52.578;13.288;2023-02-19T05:53:05;5.10;99.90
30983;DHT22;17660;52.578;13.288;2023-02-19T05:55:35;5.10;99.90
30983;DHT22;17660;52.578;13.288;2023-02-19T05:58:02;5.10;99.90
30983;DHT22;17660;52.578;13.288;2023-02-19T06:00:30;5.10;99.90
30983;DHT22;17660;52.578;13.288;2023-02-19T06:02:57;5.10;99.90
30983;DHT22;17660;52.578;13.288;2023-02-19T06:05:24;5.10;99.90
30983;DHT22;17660;52.578;13.288;2023-02-19T06:07:51;5.10;99.90
30983;DHT22;17660;52.578;13.288;2023-02-19T06:10:17;5.00;99.90
30983;DHT22;17660;52.578;13.288;2023-02-19T06:12:44;5.00;99.90
30983;DHT22;17660;52.578;13.288;2023-02-19T06:15:11;4.90;99.90
30983;DHT22;17660;52.578;13.288;2023-02-19T06:17:38;4.80;99.90
30983;DHT22;17660;52.578;13.288;2023-02-19T06:20:05;4.90;99.90
30983;DHT22;17660;52.578;13.288;2023-02-19T06:22:32;4.90;99.90
30983;DHT22;17660;52.578;13.288;2023-02-19T06:24:58;5.00;99.90
30983;DHT22;17660;52.578;13.288;2023-02-19T06:27:25;5.00;99.90
30983;DHT22;17660;52.578;13.288;2023-02-19T06:29:52;4.90;99.90
30983;DHT22;17660;52.578;13.288;2023-02-19T06:32:19;5.00;99.90
30983;DHT22;17660;52.578;13.288;2023-02-19T06:34:46;5.00;99.90
30983;DHT22;17660;52.578;13.288;2023-02-19T06:37:12;5.00;99.90
30983;DHT22;17660;52.578;13.288;2023-02-19T06:39:39;5.00;99.90
30983;DHT22;17660;52.578;13.288;2023-02-19T06:42:06;4.90;99.90
30983;DHT22;17660;52.578;13.288;2023-02-19T06:44:33;4.90;99.90
30983;DHT22;17660;52.578;13.288;2023-02-19T06:46:59;4.90;99.90
30983;DHT22;17660;52.578;13.288;2023-02-19T06:49:26;4.90;99.90
30983;DHT22;17660;52.578;13.288;2023-02-19T06:51:53;4.90;99.90
30983;DHT22;17660;52.578;13.288;2023-02-19T06:54:19;4.90;99.90
30983;DHT22;17660;52.578;13.288;2023-02-19T06:56:46;4.90;99.90
30983;DHT22;17660;52.578;13.288;2023-02-19T06:59:14;4.90;99.90
30983;DHT22;17660;52.578;13.288;2023-02-19T07:01:44;4.90;99.90
30983;DHT22;17660;52.578;13.288;2023-02-19T07:04:11;4.90;99.90
30983;DHT22;17660;52.578;13.288;2023-02-19T07:06:38;4.80;99.90
30983;DHT22;17660;52.578;13.288;2023-02-19T07:09:05;4.80;99.90
30983;DHT22;17660;52.578;13.288;2023-02-19T07:11:34;4.80;99.90
30983;DHT22;17660;52.578;13.288;2023-02-19T07:14:02;5.00;99.90
30983;DHT22;17660;52.578;13.288;2023-02-19T07:16:29;5.00;99.90
30983;DHT22;17660;52.578;13.288;2023-02-19T07:18:57;4.90;99.90
30983;DHT22;17660;52.578;13.288;2023-02-19T07:21:27;4.90;99.90
30983;DHT22;17660;52.578;13.288;2023-02-19T07:23:55;4.80;99.90
30983;DHT22;17660;52.578;13.288;2023-02-19T07:26:22;5.00;99.90
30983;DHT22;17660;52.578;13.288;2023-02-19T07:28:50;5.10;99.90
30983;DHT22;17660;52.578;13.288;2023-02-19T07:31:19;5.20;99.90
30983;DHT22;17660;52.578;13.288;2023-02-19T07:33:47;5.20;99.90
30983;DHT22;17660;52.578;13.288;2023-02-19T07:36:15;5.20;99.90
30983;DHT22;17660;52.578;13.288;2023-02-19T07:38:43;5.30;99.90
30983;DHT22;17660;52.578;13.288;2023-02-19T07:41:10;5.20;99.90
30983;DHT22;17660;52.578;13.288;2023-02-19T07:43:39;5.30;99.90
30983;DHT22;17660;52.578;13.288;2023-02-19T07:46:10;5.30;99.90
30983;DHT22;17660;52.578;13.288;2023-02-19T07:48:38;5.20;99.90
30983;DHT22;17660;52.578;13.288;2023-02-19T07:51:07;5.20;99.90
30983;DHT22;17660;52.578;13.288;2023-02-19T07:53:34;5.30;99.90
30983;DHT22;17660;52.578;13.288;2023-02-19T07:56:03;5.40;99.90
30983;DHT22;17660;52.578;13.288;2023-02-19T07:58:30;5.40;99.90
30983;DHT22;17660;52.578;13.288;2023-02-19T08:01:09;5.40;99.90
30983;DHT22;17660;52.578;13.288;2023-02-19T08:03:37;5.50;99.90
30983;DHT22;17660;52.578;13.288;2023-02-19T08:06:04;5.60;99.90
30983;DHT22;17660;52.578;13.288;2023-02-19T08:08:31;5.60;99.90
30983;DHT22;17660;52.578;13.288;2023-02-19T08:11:02;5.70;99.90
30983;DHT22;17660;52.578;13.288;2023-02-19T08:13:50;5.80;99.90
30983;DHT22;17660;52.578;13.288;2023-02-19T08:16:18;5.90;99.90
30983;DHT22;17660;52.578;13.288;2023-02-19T08:18:59;5.90;99.90
30983;DHT22;17660;52.578;13.288;2023-02-19T08:21:25;6.00;99.90
30983;DHT22;17660;52.578;13.288;2023-02-19T08:23:52;6.10;99.90
30983;DHT22;17660;52.578;13.288;2023-02-19T08:26:19;6.10;99.90
30983;DHT22;17660;52.578;13.288;2023-02-19T08:28:47;6.10;99.90
30983;DHT22;17660;52.578;13.288;2023-02-19T08:31:14;6.10;99.90
30983;DHT22;17660;52.578;13.288;2023-02-19T08:33:41;6.20;99.90
30983;DHT22;17660;52.578;13.288;2023-02-19T08:36:09;6.20;99.90
30983;DHT22;17660;52.578;13.288;2023-02-19T08:38:36;6.30;99.90
30983;DHT22;17660;52.578;13.288;2023-02-19T08:41:09;6.30;99.90
30983;DHT22;17660;52.578;13.288;2023-02-19T08:43:38;6.40;99.90
30983;DHT22;17660;52.578;13.288;2023-02-19T08:46:05;6.40;99.90
30983;DHT22;17660;52.578;13.288;2023-02-19T08:48:32;6.50;99.90
30983;DHT22;17660;52.578;13.288;2023-02-19T08:51:01;6.60;99.90
30983;DHT22;17660;52.578;13.288;2023-02-19T08:53:34;6.90;99.90
30983;DHT22;17660;52.578;13.288;2023-02-19T08:56:06;7.00;99.90
30983;DHT22;17660;52.578;13.288;2023-02-19T08:58:34;7.10;99.90
30983;DHT22;17660;52.578;13.288;2023-02-19T09:01:02;7.00;99.90
30983;DHT22;17660;52.578;13.288;2023-02-19T09:03:29;7.00;99.90
30983;DHT22;17660;52.578;13.288;2023-02-19T09:05:55;7.20;99.90
30983;DHT22;17660;52.578;13.288;2023-02-19T09:08:22;7.20;99.90
30983;DHT22;17660;52.578;13.288;2023-02-19T09:11:03;7.30;99.90
30983;DHT22;17660;52.578;13.288;2023-02-19T09:13:30;7.40;99.90
30983;DHT22;17660;52.578;13.288;2023-02-19T09:15:57;7.40;99.90
30983;DHT22;17660;52.578;13.288;2023-02-19T09:18:24;7.50;99.90
30983;DHT22;17660;52.578;13.288;2023-02-19T09:20:51;7.40;99.90
30983;DHT22;17660;52.578;13.288;2023-02-19T09:23:18;7.50;99.90
30983;DHT22;17660;52.578;13.288;2023-02-19T09:25:44;7.50;99.90
30983;DHT22;17660;52.578;13.288;2023-02-19T09:28:11;7.60;99.90
30983;DHT22;17660;52.578;13.288;2023-02-19T09:30:38;7.70;99.90
30983;DHT22;17660;52.578;13.288;2023-02-19T09:33:05;7.80;99.90
30983;DHT22;17660;52.578;13.288;2023-02-19T09:35:32;7.80;99.90
30983;DHT22;17660;52.578;13.288;2023-02-19T09:37:59;8.00;99.90
30983;DHT22;17660;52.578;13.288;2023-02-19T09:40:28;8.10;99.90
30983;DHT22;17660;52.578;13.288;2023-02-19T09:42:55;8.10;99.90
30983;DHT22;17660;52.578;13.288;2023-02-19T09:45:24;8.10;99.90
30983;DHT22;17660;52.578;13.288;2023-02-19T09:47:56;8.20;99.90
30983;DHT22;17660;52.578;13.288;2023-02-19T09:50:37;8.10;99.90
30983;DHT22;17660;52.578;13.288;2023-02-19T09:53:12;8.20;99.90
30983;DHT22;17660;52.578;13.288;2023-02-19T09:55:42;8.30;99.90
30983;DHT22;17660;52.578;13.288;2023-02-19T09:59:00;8.30;99.90
30983;DHT22;17660;52.578;13.288;2023-02-19T10:01:10;8.20;99.90
30983;DHT22;17660;52.578;13.288;2023-02-19T10:03:39;8.40;99.90
30983;DHT22;17660;52.578;13.288;2023-02-19T10:08:39;8.50;99.70
30983;DHT22;17660;52.578;13.288;2023-02-19T10:11:05;8.80;99.90
30983;DHT22;17660;52.578;13.288;2023-02-19T10:13:44;9.00;99.90
30983;DHT22;17660;52.578;13.288;2023-02-19T10:16:16;9.20;99.80
30983;DHT22;17660;52.578;13.288;2023-02-19T10:18:44;9.20;99.40
30983;DHT22;17660;52.578;13.288;2023-02-19T10:21:19;9.20;98.70
30983;DHT22;17660;52.578;13.288;2023-02-19T10:23:52;9.40;98.90
30983;DHT22;17660;52.578;13.288;2023-02-19T10:26:19;9.40;98.60
30983;DHT22;17660;52.578;13.288;2023-02-19T10:28:47;9.40;98.30
30983;DHT22;17660;52.578;13.288;2023-02-19T10:31:20;9.50;98.30
30983;DHT22;17660;52.578;13.288;2023-02-19T10:33:55;9.80;97.90
30983;DHT22;17660;52.578;13.288;2023-02-19T10:38:58;11.10;96.60
30983;DHT22;17660;52.578;13.288;2023-02-19T10:41:27;11.60;96.20
30983;DHT22;17660;52.578;13.288;2023-02-19T10:44:07;11.60;95.10
30983;DHT22;17660;52.578;13.288;2023-02-19T10:46:42;11.30;94.70
30983;DHT22;17660;52.578;13.288;2023-02-19T10:49:28;11.90;94.40
30983;DHT22;17660;52.578;13.288;2023-02-19T10:52:46;12.40;92.90
30983;DHT22;17660;52.578;13.288;2023-02-19T10:55:41;12.70;91.20
30983;DHT22;17660;52.578;13.288;2023-02-19T10:57:43;12.30;91.90
30983;DHT22;17660;52.578;13.288;2023-02-19T11:02:43;13.70;91.60
30983;DHT22;17660;52.578;13.288;2023-02-19T11:07:52;14.60;86.60
30983;DHT22;17660;52.578;13.288;2023-02-19T11:10:25;14.60;87.50
30983;DHT22;17660;52.578;13.288;2023-02-19T11:12:58;14.30;87.60
30983;DHT22;17660;52.578;13.288;2023-02-19T11:15:32;13.10;86.30
30983;DHT22;17660;52.578;13.288;2023-02-19T11:18:14;12.90;88.10
30983;DHT22;17660;52.578;13.288;2023-02-19T11:20:48;13.30;88.10
30983;DHT22;17660;52.578;13.288;2023-02-19T11:23:18;13.70;87.00
30983;DHT22;17660;52.578;13.288;2023-02-19T11:25:49;13.20;86.40
30983;DHT22;17660;52.578;13.288;2023-02-19T11:36:29;10.80;90.50
30983;DHT22;17660;52.578;13.288;2023-02-19T11:39:19;10.30;90.30
30983;DHT22;17660;52.578;13.288;2023-02-19T11:46:57;10.70;90.80
30983;DHT22;17660;52.578;13.288;2023-02-19T11:49:45;10.50;90.70
30983;DHT22;17660;52.578;13.288;2023-02-19T11:55:20;10.30;91.10
30983;DHT22;17660;52.578;13.288;2023-02-19T11:58:02;10.60;90.20
30983;DHT22;17660;52.578;13.288;2023-02-19T12:00:48;10.40;90.60
30983;DHT22;17660;52.578;13.288;2023-02-19T12:15:19;9.40;91.50
30983;DHT22;17660;52.578;13.288;2023-02-19T12:31:21;9.40;91.40
30983;DHT22;17660;52.578;13.288;2023-02-19T12:47:04;12.30;88.00
30983;DHT22;17660;52.578;13.288;2023-02-19T12:49:38;12.30;86.20
30983;DHT22;17660;52.578;13.288;2023-02-19T12:52:10;11.50;86.90
30983;DHT22;17660;52.578;13.288;2023-02-19T12:54:47;10.90;87.90
30983;DHT22;17660;52.578;13.288;2023-02-19T12:57:24;11.50;87.90
30983;DHT22;17660;52.578;13.288;2023-02-19T13:02:29;11.20;84.80
30983;DHT22;17660;52.578;13.288;2023-02-19T13:05:18;12.00;84.30
30983;DHT22;17660;52.578;13.288;2023-02-19T13:07:52;11.90;83.70
30983;DHT22;17660;52.578;13.288;2023-02-19T13:10:32;11.10;84.90
30983;DHT22;17660;52.578;13.288;2023-02-19T13:13:09;10.80;86.20
30983;DHT22;17660;52.578;13.288;2023-02-19T13:15:41;10.70;86.70
30983;DHT22;17660;52.578;13.288;2023-02-19T13:18:25;11.00;87.10
30983;DHT22;17660;52.578;13.288;2023-02-19T13:20:53;11.70;85.00
30983;DHT22;17660;52.578;13.288;2023-02-19T13:23:29;13.40;82.20
30983;DHT22;17660;52.578;13.288;2023-02-19T13:29:14;16.60;75.30
30983;DHT22;17660;52.578;13.288;2023-02-19T13:32:10;17.80;71.30
30983;DHT22;17660;52.578;13.288;2023-02-19T13:37:37;18.90;67.20
30983;DHT22;17660;52.578;13.288;2023-02-19T13:40:34;17.50;67.20
30983;DHT22;17660;52.578;13.288;2023-02-19T13:43:06;15.70;68.90
30983;DHT22;17660;52.578;13.288;2023-02-19T13:45:36;14.10;70.60
30983;DHT22;17660;52.578;13.288;2023-02-19T13:59:32;10.10;79.00
30983;DHT22;17660;52.578;13.288;2023-02-19T14:04:45;9.50;81.00
30983;DHT22;17660;52.578;13.288;2023-02-19T14:09:44;9.30;82.90
30983;DHT22;17660;52.578;13.288;2023-02-19T14:14:45;9.10;83.20
30983;DHT22;17660;52.578;13.288;2023-02-19T14:17:43;9.00;84.20
30983;DHT22;17660;52.578;13.288;2023-02-19T14:30:54;11.30;78.50
30983;DHT22;17660;52.578;13.288;2023-02-19T14:33:24;11.10;78.70
30983;DHT22;17660;52.578;13.288;2023-02-19T14:35:55;10.60;79.60
30983;DHT22;17660;52.578;13.288;2023-02-19T14:38:30;10.20;80.40
30983;DHT22;17660;52.578;13.288;2023-02-19T14:40:59;9.90;80.30
30983;DHT22;17660;52.578;13.288;2023-02-19T14:43:27;9.80;82.00
30983;DHT22;17660;52.578;13.288;2023-02-19T14:45:57;9.60;82.90
30983;DHT22;17660;52.578;13.288;2023-02-19T14:48:37;9.40;83.30
30983;DHT22;17660;52.578;13.288;2023-02-19T14:51:19;9.30;83.40
30983;DHT22;17660;52.578;13.288;2023-02-19T14:53:49;9.10;83.80
30983;DHT22;17660;52.578;13.288;2023-02-19T14:56:22;8.90;83.70
30983;DHT22;17660;52.578;13.288;2023-02-19T14:59:14;8.90;82.80
30983;DHT22;17660;52.578;13.288;2023-02-19T15:01:42;9.00;82.20
30983;DHT22;17660;52.578;13.288;2023-02-19T15:04:21;9.30;80.40
30983;DHT22;17660;52.578;13.288;2023-02-19T15:06:49;9.30;79.80
30983;DHT22;17660;52.578;13.288;2023-02-19T15:09:19;9.50;80.10
30983;DHT22;17660;52.578;13.288;2023-02-19T15:11:47;9.60;78.90
30983;DHT22;17660;52.578;13.288;2023-02-19T15:14:21;9.70;78.20
30983;DHT22;17660;52.578;13.288;2023-02-19T15:16:55;9.70;78.10
30983;DHT22;17660;52.578;13.288;2023-02-19T15:19:22;9.80;78.20
30983;DHT22;17660;52.578;13.288;2023-02-19T15:21:49;9.70;78.50
30983;DHT22;17660;52.578;13.288;2023-02-19T15:24:17;9.50;78.00
30983;DHT22;17660;52.578;13.288;2023-02-19T15:26:49;9.40;79.00
30983;DHT22;17660;52.578;13.288;2023-02-19T15:29:19;9.40;78.80
30983;DHT22;17660;52.578;13.288;2023-02-19T15:31:48;9.50;78.70
30983;DHT22;17660;52.578;13.288;2023-02-19T15:34:18;9.60;78.10
30983;DHT22;17660;52.578;13.288;2023-02-19T15:36:46;9.50;78.80
30983;DHT22;17660;52.578;13.288;2023-02-19T15:39:23;9.30;79.00
30983;DHT22;17660;52.578;13.288;2023-02-19T15:41:54;9.00;79.50
30983;DHT22;17660;52.578;13.288;2023-02-19T15:46:50;8.40;81.50
30983;DHT22;17660;52.578;13.288;2023-02-19T15:49:29;8.30;82.20
30983;DHT22;17660;52.578;13.288;2023-02-19T15:52:10;8.10;82.50
30983;DHT22;17660;52.578;13.288;2023-02-19T15:55:06;8.00;82.60
30983;DHT22;17660;52.578;13.288;2023-02-19T15:57:40;7.90;83.20
30983;DHT22;17660;52.578;13.288;2023-02-19T16:00:18;7.80;83.60
30983;DHT22;17660;52.578;13.288;2023-02-19T16:02:46;7.70;83.60
30983;DHT22;17660;52.578;13.288;2023-02-19T16:05:22;7.70;84.00
30983;DHT22;17660;52.578;13.288;2023-02-19T16:10:38;7.50;84.10
30983;DHT22;17660;52.578;13.288;2023-02-19T16:13:05;7.40;85.40
30983;DHT22;17660;52.578;13.288;2023-02-19T16:15:35;7.30;85.80
30983;DHT22;17660;52.578;13.288;2023-02-19T16:18:03;7.20;86.20
30983;DHT22;17660;52.578;13.288;2023-02-19T16:20:32;7.20;86.30
30983;DHT22;17660;52.578;13.288;2023-02-19T16:23:11;7.10;85.90
30983;DHT22;17660;52.578;13.288;2023-02-19T16:25:41;7.10;86.80
30983;DHT22;17660;52.578;13.288;2023-02-19T16:28:21;7.00;87.60
30983;DHT22;17660;52.578;13.288;2023-02-19T16:31:03;6.90;88.10
30983;DHT22;17660;52.578;13.288;2023-02-19T16:33:35;6.80;88.50
30983;DHT22;17660;52.578;13.288;2023-02-19T16:36:35;6.70;89.20
30983;DHT22;17660;52.578;13.288;2023-02-19T16:44:29;6.50;90.30
30983;DHT22;17660;52.578;13.288;2023-02-19T16:46:59;6.40;90.30
30983;DHT22;17660;52.578;13.288;2023-02-19T16:49:27;6.30;90.80
30983;DHT22;17660;52.578;13.288;2023-02-19T16:51:54;6.30;90.90
30983;DHT22;17660;52.578;13.288;2023-02-19T16:54:22;6.20;90.90
30983;DHT22;17660;52.578;13.288;2023-02-19T16:56:49;6.20;91.10
30983;DHT22;17660;52.578;13.288;2023-02-19T16:59:15;6.10;91.40
30983;DHT22;17660;52.578;13.288;2023-02-19T17:01:42;6.00;91.40
30983;DHT22;17660;52.578;13.288;2023-02-19T17:04:11;6.00;91.50
30983;DHT22;17660;52.578;13.288;2023-02-19T17:06:38;5.90;91.70
30983;DHT22;17660;52.578;13.288;2023-02-19T17:09:05;5.90;91.80
30983;DHT22;17660;52.578;13.288;2023-02-19T17:11:34;5.80;91.80
30983;DHT22;17660;52.578;13.288;2023-02-19T17:14:01;5.80;91.90
30983;DHT22;17660;52.578;13.288;2023-02-19T17:16:32;5.70;91.80
30983;DHT22;17660;52.578;13.288;2023-02-19T17:19:16;5.80;92.00
30983;DHT22;17660;52.578;13.288;2023-02-19T17:33:02;5.40;93.20
30983;DHT22;17660;52.578;13.288;2023-02-19T17:36:24;5.30;93.60
30983;DHT22;17660;52.578;13.288;2023-02-19T17:39:39;5.20;93.60
30983;DHT22;17660;52.578;13.288;2023-02-19T17:42:06;5.20;93.90
30983;DHT22;17660;52.578;13.288;2023-02-19T17:44:33;5.20;94.00
30983;DHT22;17660;52.578;13.288;2023-02-19T17:47:00;5.20;94.10
30983;DHT22;17660;52.578;13.288;2023-02-19T17:49:27;5.10;94.10
30983;DHT22;17660;52.578;13.288;2023-02-19T17:51:54;5.10;94.20
30983;DHT22;17660;52.578;13.288;2023-02-19T17:54:21;5.10;94.20
30983;DHT22;17660;52.578;13.288;2023-02-19T17:56:47;5.10;94.30
30983;DHT22;17660;52.578;13.288;2023-02-19T17:59:14;5.00;94.30
30983;DHT22;17660;52.578;13.288;2023-02-19T18:01:43;5.00;94.50
30983;DHT22;17660;52.578;13.288;2023-02-19T18:04:11;5.00;94.70
30983;DHT22;17660;52.578;13.288;2023-02-19T18:06:38;5.00;94.90
30983;DHT22;17660;52.578;13.288;2023-02-19T18:09:05;5.00;95.00
30983;DHT22;17660;52.578;13.288;2023-02-19T18:11:31;5.00;95.10
30983;DHT22;17660;52.578;13.288;2023-02-19T18:13:58;5.00;95.20
30983;DHT22;17660;52.578;13.288;2023-02-19T18:16:25;5.00;95.20
30983;DHT22;17660;52.578;13.288;2023-02-19T18:18:52;5.00;95.20
30983;DHT22;17660;52.578;13.288;2023-02-19T18:21:22;4.90;95.30
30983;DHT22;17660;52.578;13.288;2023-02-19T18:23:49;4.90;95.50
30983;DHT22;17660;52.578;13.288;2023-02-19T18:26:17;4.90;95.60
30983;DHT22;17660;52.578;13.288;2023-02-19T18:28:46;4.90;95.80
30983;DHT22;17660;52.578;13.288;2023-02-19T18:31:13;4.80;95.80
30983;DHT22;17660;52.578;13.288;2023-02-19T18:33:43;4.80;96.00
30983;DHT22;17660;52.578;13.288;2023-02-19T18:36:11;4.80;96.00
30983;DHT22;17660;52.578;13.288;2023-02-19T18:38:38;4.80;96.10